Time;durP1;ratioP1;P1;durP2;ratioP2;P2;SDS_P1;SDS_P2;PMS_P1;PMS_P2;Temp;Humidity;BMP_temperature;BMP_pressure;BME280_temperature;BME280_humidity;BME280_pressure;Samples;Min_cycle;Max_cycle;Signal;HPM_P1;HPM_P2
2023/09/27 00:01:32;;;;;;;7.57;4.50;;;16.20;99.90;;;;;;4976945;28;20463;-79
2023/09/27 00:03:58;;;;;;;4.80;4.33;;;16.20;99.90;;;;;;4977575;28;20512;-81
2023/09/27 00:06:25;;;;;;;5.20;3.70;;;16.10;99.90;;;;;;4977273;28;20473;-80
2023/09/27 00:08:52;;;;;;;4.53;3.53;;;16.10;99.90;;;;;;4971808;28;20487;-79
2023/09/27 00:11:19;;;;;;;3.90;3.17;;;16.10;99.90;;;;;;4980355;28;20477;-78
2023/09/27 00:13:46;;;;;;;3.57;3.27;;;16.10;99.90;;;;;;4978612;28;20503;-79
2023/09/27 00:16:14;;;;;;;3.57;3.27;;;16.10;99.90;;;;;;4979473;28;20460;-79
2023/09/27 00:18:41;;;;;;;3.80;3.40;;;16.10;99.90;;;;;;4979114;28;20477;-79
2023/09/27 00:21:08;;;;;;;4.47;4.07;;;16.00;99.90;;;;;;4980068;28;20475;-80
2023/09/27 00:23:35;;;;;;;5.93;3.90;;;16.00;99.90;;;;;;4980328;28;20455;-80
2023/09/27 00:26:01;;;;;;;4.80;3.70;;;16.00;99.90;;;;;;4981242;28;20494;-80
2023/09/27 00:28:28;;;;;;;4.20;3.77;;;16.00;99.90;;;;;;4981131;28;20470;-79
2023/09/27 00:30:55;;;;;;;5.60;3.47;;;16.00;99.90;;;;;;4980606;28;20483;-80
2023/09/27 00:33:23;;;;;;;4.40;3.90;;;15.90;99.90;;;;;;4980873;28;20506;-80
2023/09/27 00:35:50;;;;;;;4.17;3.53;;;15.90;99.90;;;;;;4980774;28;20460;-80
2023/09/27 00:38:17;;;;;;;4.70;4.00;;;15.90;99.90;;;;;;4980227;28;20551;-80
2023/09/27 00:40:45;;;;;;;4.30;3.60;;;15.90;99.90;;;;;;4980431;28;20511;-80
2023/09/27 00:43:25;;;;;;;6.23;4.23;;;15.90;99.90;;;;;;4980516;28;20451;-80
2023/09/27 00:45:54;;;;;;;4.50;3.50;;;15.80;99.90;;;;;;4972455;28;20459;-80
2023/09/27 00:48:22;;;;;;;5.53;3.93;;;15.80;99.90;;;;;;4977574;28;20480;-80
2023/09/27 00:50:49;;;;;;;4.60;3.90;;;15.80;99.90;;;;;;4979902;28;20479;-80
2023/09/27 00:53:16;;;;;;;4.10;3.70;;;15.80;99.90;;;;;;4980219;28;20506;-80
2023/09/27 00:55:43;;;;;;;5.10;4.40;;;15.80;99.90;;;;;;4979806;28;20499;-80
2023/09/27 00:58:12;;;;;;;4.33;3.93;;;15.80;99.90;;;;;;4979337;28;20461;-80
2023/09/27 01:00:39;;;;;;;4.27;3.87;;;15.80;99.90;;;;;;4980170;28;20859;-80
2023/09/27 01:03:07;;;;;;;3.97;3.57;;;15.70;99.90;;;;;;4980549;28;20483;-80
2023/09/27 01:05:36;;;;;;;5.10;3.60;;;15.80;99.90;;;;;;4980157;28;20510;-80
2023/09/27 01:08:03;;;;;;;4.27;3.87;;;15.70;99.90;;;;;;4979459;28;20523;-80
2023/09/27 01:10:30;;;;;;;4.40;3.47;;;15.80;99.90;;;;;;4981034;28;20495;-78
2023/09/27 01:12:57;;;;;;;3.90;3.50;;;15.70;99.90;;;;;;4985273;28;20597;-80
2023/09/27 01:15:23;;;;;;;4.10;3.70;;;15.70;99.90;;;;;;4979297;28;20486;-79
2023/09/27 01:17:54;;;;;;;4.03;3.63;;;15.70;99.90;;;;;;4979206;28;20468;-80
2023/09/27 01:20:21;;;;;;;5.17;4.03;;;15.60;99.90;;;;;;4978809;28;20483;-79
2023/09/27 01:22:57;;;;;;;7.43;4.10;;;15.60;99.90;;;;;;4979504;28;20540;-79
2023/09/27 01:25:27;;;;;;;3.97;3.60;;;15.60;99.90;;;;;;4978030;28;20453;-79
2023/09/27 01:27:54;;;;;;;4.17;3.10;;;15.60;99.90;;;;;;4969799;28;20534;-80
2023/09/27 01:30:21;;;;;;;5.07;3.50;;;15.60;99.90;;;;;;4977505;28;20569;-80
2023/09/27 01:32:48;;;;;;;3.80;3.30;;;15.60;99.90;;;;;;4977294;28;20500;-80
2023/09/27 01:35:14;;;;;;;4.23;3.83;;;15.50;99.90;;;;;;4977778;28;20465;-80
2023/09/27 01:37:41;;;;;;;4.27;3.87;;;15.50;99.90;;;;;;4977807;28;20459;-80
2023/09/27 01:40:14;;;;;;;5.50;3.77;;;15.50;99.90;;;;;;4977954;28;20479;-79
2023/09/27 01:42:43;;;;;;;3.63;3.20;;;15.50;99.90;;;;;;4977763;28;20498;-81
2023/09/27 01:45:11;;;;;;;4.60;4.10;;;15.40;99.90;;;;;;4977720;28;20493;-79
2023/09/27 01:47:38;;;;;;;4.00;3.17;;;15.50;99.90;;;;;;4977961;28;20478;-80
2023/09/27 01:50:06;;;;;;;3.43;3.13;;;15.50;99.90;;;;;;4978523;28;20483;-79
2023/09/27 01:52:33;;;;;;;6.00;4.20;;;15.40;99.90;;;;;;4977550;28;20490;-78
2023/09/27 01:55:00;;;;;;;4.63;3.60;;;15.40;99.90;;;;;;4978117;28;20458;-78
2023/09/27 01:57:28;;;;;;;4.40;3.80;;;15.40;99.90;;;;;;4977656;28;20462;-79
2023/09/27 01:59:55;;;;;;;4.17;3.53;;;15.40;99.90;;;;;;4977459;28;21008;-78
2023/09/27 02:02:22;;;;;;;4.27;3.87;;;15.30;99.90;;;;;;4977328;28;20817;-78
2023/09/27 02:04:48;;;;;;;4.10;3.70;;;15.40;99.90;;;;;;4977054;28;20457;-79
2023/09/27 02:07:15;;;;;;;5.43;3.47;;;15.40;99.90;;;;;;4975983;28;20455;-79
2023/09/27 02:09:42;;;;;;;5.10;4.03;;;15.30;99.90;;;;;;4977095;28;20507;-79
2023/09/27 02:12:09;;;;;;;7.03;3.87;;;15.30;99.90;;;;;;4976129;28;20996;-78
2023/09/27 02:14:37;;;;;;;4.10;3.70;;;15.30;99.90;;;;;;4976493;28;20458;-78
2023/09/27 02:17:04;;;;;;;4.60;3.60;;;15.30;99.90;;;;;;4976368;28;20819;-79
2023/09/27 02:19:30;;;;;;;3.70;3.37;;;15.30;99.90;;;;;;4976790;28;20467;-79
2023/09/27 02:21:57;;;;;;;6.80;3.70;;;15.20;99.90;;;;;;4976885;28;20917;-79
2023/09/27 02:24:24;;;;;;;6.17;4.30;;;15.20;99.90;;;;;;4976457;28;20459;-78
2023/09/27 02:26:53;;;;;;;3.97;3.57;;;15.20;99.90;;;;;;4976194;28;20478;-77
2023/09/27 02:29:20;;;;;;;4.60;3.67;;;15.20;99.90;;;;;;4976133;28;20510;-78
2023/09/27 02:31:48;;;;;;;4.90;3.97;;;15.20;99.90;;;;;;4975349;28;20451;-78
2023/09/27 02:34:16;;;;;;;4.23;3.80;;;15.20;99.90;;;;;;4976630;28;20571;-79
2023/09/27 02:36:43;;;;;;;4.70;4.00;;;15.20;99.90;;;;;;4975994;28;20471;-78
2023/09/27 02:39:11;;;;;;;4.90;4.50;;;15.20;99.90;;;;;;4976843;28;20521;-79
2023/09/27 02:41:37;;;;;;;5.00;4.27;;;15.20;99.90;;;;;;4976819;28;20518;-78
2023/09/27 02:44:05;;;;;;;4.33;3.80;;;15.20;99.90;;;;;;4976815;28;20459;-78
2023/09/27 02:46:32;;;;;;;5.00;4.00;;;15.20;99.90;;;;;;4976266;28;20497;-79
2023/09/27 02:49:00;;;;;;;4.67;4.17;;;15.20;99.90;;;;;;4976776;28;20466;-78
2023/09/27 02:51:27;;;;;;;4.73;4.23;;;15.20;99.90;;;;;;4977358;28;20459;-79
2023/09/27 02:53:53;;;;;;;4.83;3.53;;;15.10;99.90;;;;;;4977142;28;20492;-79
2023/09/27 02:56:20;;;;;;;4.20;3.80;;;15.10;99.90;;;;;;4977131;28;20458;-79
2023/09/27 02:58:47;;;;;;;4.70;4.20;;;15.10;99.90;;;;;;4976665;28;20476;-80
2023/09/27 03:01:14;;;;;;;4.70;4.30;;;15.10;99.90;;;;;;4977401;28;20462;-79
2023/09/27 03:03:40;;;;;;;4.80;3.77;;;15.10;99.90;;;;;;4977282;28;20839;-79
2023/09/27 03:06:14;;;;;;;3.87;3.47;;;15.10;99.90;;;;;;4976793;28;20467;-79
2023/09/27 03:08:43;;;;;;;4.63;4.10;;;15.10;99.90;;;;;;4977219;28;20471;-79
2023/09/27 03:11:09;;;;;;;5.03;4.10;;;15.10;99.90;;;;;;4977159;28;20510;-78
2023/09/27 03:13:37;;;;;;;4.23;3.83;;;15.10;99.90;;;;;;4978600;28;20889;-80
2023/09/27 03:16:04;;;;;;;4.40;3.77;;;15.00;99.90;;;;;;4977497;28;20463;-79
2023/09/27 03:18:32;;;;;;;6.50;4.33;;;15.00;99.90;;;;;;4976300;28;20447;-78
2023/09/27 03:20:59;;;;;;;4.87;3.97;;;15.00;99.90;;;;;;4976813;28;20481;-79
2023/09/27 03:23:27;;;;;;;4.97;4.47;;;15.00;99.90;;;;;;4979734;28;20459;-78
2023/09/27 03:25:55;;;;;;;4.87;3.90;;;15.00;99.90;;;;;;4980887;28;20458;-77
2023/09/27 03:28:22;;;;;;;4.10;3.70;;;15.00;99.90;;;;;;4975279;28;20451;-78
2023/09/27 03:30:49;;;;;;;5.23;4.30;;;15.00;99.90;;;;;;4974797;28;20470;-78
2023/09/27 03:33:16;;;;;;;5.67;3.70;;;15.10;99.90;;;;;;4974956;28;20502;-79
2023/09/27 03:35:43;;;;;;;4.67;4.03;;;15.00;99.90;;;;;;4974641;28;20459;-79
2023/09/27 03:38:10;;;;;;;4.13;3.73;;;15.00;99.90;;;;;;4975195;28;20838;-78
2023/09/27 03:40:41;;;;;;;4.37;3.97;;;15.00;99.90;;;;;;4965648;28;21029;-78
2023/09/27 03:43:08;;;;;;;5.00;4.37;;;15.00;99.90;;;;;;4969236;28;20489;-77
2023/09/27 03:45:35;;;;;;;4.53;3.87;;;15.00;99.90;;;;;;4975233;28;20463;-78
2023/09/27 03:48:02;;;;;;;4.37;3.97;;;15.00;99.90;;;;;;4974899;28;20951;-79
2023/09/27 03:50:29;;;;;;;5.77;3.63;;;15.00;99.90;;;;;;4975363;28;20483;-78
2023/09/27 03:52:57;;;;;;;4.83;3.80;;;15.00;99.90;;;;;;4975702;28;20454;-77
2023/09/27 03:55:25;;;;;;;4.93;4.03;;;14.90;99.90;;;;;;4976131;28;20457;-78
2023/09/27 03:57:53;;;;;;;5.30;4.17;;;14.90;99.90;;;;;;4975814;28;20455;-79
2023/09/27 04:00:20;;;;;;;5.10;4.50;;;14.90;99.90;;;;;;4975876;28;20488;-78
2023/09/27 04:02:47;;;;;;;5.03;4.47;;;14.90;99.90;;;;;;4975640;28;20461;-79
2023/09/27 04:05:16;;;;;;;6.60;4.77;;;14.90;99.90;;;;;;4975151;28;20460;-79
2023/09/27 04:07:43;;;;;;;6.30;3.60;;;14.90;99.90;;;;;;4974310;28;20535;-78
2023/09/27 04:10:11;;;;;;;4.63;4.07;;;14.90;99.90;;;;;;4974301;28;20484;-79
2023/09/27 04:12:37;;;;;;;5.57;4.63;;;14.90;99.90;;;;;;4974762;28;20521;-78
2023/09/27 04:15:09;;;;;;;4.67;4.27;;;14.90;99.90;;;;;;4974137;28;20501;-78
2023/09/27 04:17:37;;;;;;;7.00;4.27;;;14.90;99.90;;;;;;4973993;28;20495;-78
2023/09/27 04:20:14;;;;;;;5.10;4.03;;;14.90;99.90;;;;;;4974309;28;20582;-78
2023/09/27 04:22:43;;;;;;;5.17;3.83;;;14.90;99.90;;;;;;4974299;28;20461;-79
2023/09/27 04:25:12;;;;;;;4.40;4.00;;;14.90;99.90;;;;;;4972215;28;20728;-78
2023/09/27 04:27:40;;;;;;;5.43;4.30;;;14.90;99.90;;;;;;4974243;28;20528;-79
2023/09/27 04:30:12;;;;;;;4.30;3.90;;;14.80;99.90;;;;;;4974722;28;20487;-78
2023/09/27 04:32:40;;;;;;;5.63;3.83;;;14.80;99.90;;;;;;4974415;28;20461;-78
2023/09/27 04:35:09;;;;;;;6.37;4.23;;;14.80;99.90;;;;;;4974307;28;20537;-77
2023/09/27 04:37:36;;;;;;;4.87;3.67;;;14.80;99.90;;;;;;4974705;28;20509;-77
2023/09/27 04:40:06;;;;;;;8.43;4.67;;;14.80;99.90;;;;;;4974870;28;20483;-77
2023/09/27 04:42:34;;;;;;;5.93;4.67;;;14.80;99.90;;;;;;4974422;28;20463;-78
2023/09/27 04:45:00;;;;;;;5.20;4.53;;;14.80;99.90;;;;;;4975295;28;20739;-80
2023/09/27 04:47:29;;;;;;;5.60;4.50;;;14.80;99.90;;;;;;4976500;28;20467;-81
2023/09/27 04:49:55;;;;;;;5.63;4.50;;;14.80;99.90;;;;;;4977339;28;20468;-81
2023/09/27 04:52:23;;;;;;;5.17;4.57;;;14.80;99.90;;;;;;4977067;28;20970;-81
2023/09/27 04:54:54;;;;;;;5.50;5.00;;;14.80;99.90;;;;;;4978588;28;20582;-80
2023/09/27 04:57:21;;;;;;;5.57;4.57;;;14.70;99.90;;;;;;4979537;28;20462;-80
2023/09/27 04:59:48;;;;;;;5.57;4.10;;;14.70;99.90;;;;;;4979199;28;20480;-80
2023/09/27 05:02:16;;;;;;;5.93;4.47;;;14.70;99.90;;;;;;4979441;28;20938;-80
2023/09/27 05:04:45;;;;;;;5.90;4.30;;;14.70;99.90;;;;;;4980559;28;20461;-81
2023/09/27 05:07:12;;;;;;;12.53;5.17;;;14.70;99.90;;;;;;4981700;28;20491;-80
2023/09/27 05:09:38;;;;;;;5.23;4.23;;;14.70;99.90;;;;;;4982512;28;20504;-79
2023/09/27 05:12:06;;;;;;;6.77;4.00;;;14.70;99.90;;;;;;4982042;28;20968;-79
2023/09/27 05:14:33;;;;;;;8.27;4.80;;;14.70;99.90;;;;;;4979952;28;20498;-80
2023/09/27 05:16:59;;;;;;;4.30;3.90;;;14.70;99.90;;;;;;4980118;28;20542;-80
2023/09/27 05:19:26;;;;;;;5.07;4.57;;;14.70;99.90;;;;;;4980518;28;20483;-80
2023/09/27 05:21:55;;;;;;;7.67;4.40;;;14.60;99.90;;;;;;4972545;28;20459;-81
2023/09/27 05:24:22;;;;;;;4.97;4.00;;;14.60;99.90;;;;;;4980494;28;20454;-81
2023/09/27 05:26:48;;;;;;;5.60;4.17;;;14.60;99.90;;;;;;4980054;28;20463;-80
2023/09/27 05:29:15;;;;;;;6.50;4.70;;;14.60;99.90;;;;;;4981318;28;20475;-81
2023/09/27 05:31:42;;;;;;;6.10;4.90;;;14.60;99.90;;;;;;4981458;28;20474;-80
2023/09/27 05:34:09;;;;;;;7.83;4.53;;;14.60;99.90;;;;;;4982279;28;20561;-80
2023/09/27 05:36:36;;;;;;;9.10;5.00;;;14.50;99.90;;;;;;4987292;28;20456;-79
2023/09/27 05:39:05;;;;;;;6.27;4.90;;;14.60;99.90;;;;;;4985783;28;20557;-80
2023/09/27 05:41:32;;;;;;;6.60;4.97;;;14.50;99.90;;;;;;4979494;28;20458;-80
2023/09/27 05:43:59;;;;;;;6.43;5.00;;;14.60;99.90;;;;;;4978961;28;20456;-80
2023/09/27 05:46:28;;;;;;;7.50;5.13;;;14.50;99.90;;;;;;4979408;28;20458;-81
2023/09/27 05:48:55;;;;;;;6.93;4.67;;;14.50;99.90;;;;;;4979766;28;20487;-80
2023/09/27 05:51:23;;;;;;;8.33;5.27;;;14.50;99.90;;;;;;4980170;28;20462;-83
2023/09/27 05:53:52;;;;;;;5.47;4.47;;;14.50;99.90;;;;;;4979922;28;20529;-82
2023/09/27 05:56:20;;;;;;;5.50;4.97;;;14.50;99.90;;;;;;4979433;28;20546;-83
2023/09/27 05:58:47;;;;;;;5.30;4.67;;;14.50;99.90;;;;;;4978988;28;20465;-83
2023/09/27 06:01:19;;;;;;;6.60;4.80;;;14.50;99.90;;;;;;4979152;28;20457;-82
2023/09/27 06:03:46;;;;;;;6.20;4.97;;;14.50;99.90;;;;;;4979666;28;20447;-83
2023/09/27 06:06:13;;;;;;;5.70;4.60;;;14.50;99.90;;;;;;4978216;28;20517;-81
2023/09/27 06:08:41;;;;;;;5.07;4.40;;;14.50;99.90;;;;;;4978711;28;20528;-81
2023/09/27 06:11:09;;;;;;;6.80;5.50;;;14.50;99.90;;;;;;4979088;28;20497;-82
2023/09/27 06:13:37;;;;;;;5.50;4.90;;;14.50;99.90;;;;;;4978826;28;20865;-79
2023/09/27 06:16:12;;;;;;;8.00;5.17;;;14.60;99.90;;;;;;4980807;28;20526;-80
2023/09/27 06:18:39;;;;;;;7.20;5.50;;;14.60;99.90;;;;;;4980514;28;20514;-79
2023/09/27 06:21:06;;;;;;;6.60;5.43;;;14.70;99.90;;;;;;4977004;28;20474;-79
2023/09/27 06:23:33;;;;;;;7.33;5.37;;;14.70;99.90;;;;;;4979649;28;20470;-79
2023/09/27 06:25:59;;;;;;;4.53;4.13;;;14.80;99.90;;;;;;4982892;28;20463;-79
2023/09/27 06:28:26;;;;;;;8.33;5.17;;;14.80;99.90;;;;;;4974336;28;20469;-80
2023/09/27 06:30:54;;;;;;;5.70;5.10;;;14.90;99.90;;;;;;4967181;28;20574;-79
2023/09/27 06:33:21;;;;;;;5.97;4.57;;;15.00;99.90;;;;;;4983451;28;20463;-80
2023/09/27 06:35:48;;;;;;;7.80;5.10;;;15.10;99.90;;;;;;4983776;28;20601;-79
2023/09/27 06:38:19;;;;;;;6.40;5.30;;;15.20;99.90;;;;;;4982542;28;20458;-79
2023/09/27 06:40:45;;;;;;;6.73;4.63;;;15.30;99.90;;;;;;4981054;28;20490;-79
2023/09/27 06:43:14;;;;;;;8.70;4.97;;;15.40;99.90;;;;;;4983555;28;20458;-80
2023/09/27 06:45:41;;;;;;;7.73;5.60;;;15.40;99.90;;;;;;4982324;28;20528;-78
2023/09/27 06:48:10;;;;;;;7.33;5.10;;;15.60;99.90;;;;;;4980037;28;20458;-80
2023/09/27 06:50:40;;;;;;;9.37;6.67;;;15.60;99.90;;;;;;4981800;28;20542;-79
2023/09/27 06:53:07;;;;;;;7.13;5.83;;;15.70;99.90;;;;;;4982177;28;20463;-79
2023/09/27 06:55:34;;;;;;;6.67;5.63;;;15.80;99.90;;;;;;4981577;28;20489;-80
2023/09/27 06:58:01;;;;;;;8.00;6.47;;;15.90;99.90;;;;;;4982569;28;20550;-80
2023/09/27 07:00:28;;;;;;;7.97;5.90;;;16.00;99.90;;;;;;4982039;28;20486;-80
2023/09/27 07:02:54;;;;;;;8.23;5.60;;;16.10;99.90;;;;;;4976707;28;20602;-80
2023/09/27 07:05:23;;;;;;;8.10;5.80;;;16.20;99.90;;;;;;4975404;28;20543;-82
2023/09/27 07:07:50;;;;;;;7.77;5.93;;;16.30;99.90;;;;;;4973217;28;20466;-81
2023/09/27 07:10:17;;;;;;;6.77;5.67;;;16.30;99.90;;;;;;4972602;28;21022;-82
2023/09/27 07:12:44;;;;;;;9.83;6.40;;;16.30;99.90;;;;;;4975002;28;20439;-81
2023/09/27 07:15:13;;;;;;;8.17;5.80;;;16.40;99.90;;;;;;4972012;28;20547;-82
2023/09/27 07:17:40;;;;;;;7.33;5.47;;;16.40;99.90;;;;;;4972236;28;20479;-83
2023/09/27 07:20:20;;;;;;;6.33;5.83;;;16.50;99.90;;;;;;4965954;28;20555;-81
2023/09/27 07:22:48;;;;;;;8.93;6.10;;;16.50;99.90;;;;;;4974139;28;20537;-82
2023/09/27 07:25:19;;;;;;;6.63;5.60;;;16.50;99.90;;;;;;4970908;28;20483;-82
2023/09/27 07:27:48;;;;;;;6.97;5.63;;;16.60;99.90;;;;;;4969105;28;20555;-83
2023/09/27 07:30:18;;;;;;;7.27;6.00;;;16.60;99.90;;;;;;4975890;28;20476;-81
2023/09/27 07:32:45;;;;;;;7.73;6.00;;;16.70;99.90;;;;;;4966697;28;20554;-81
2023/09/27 07:35:14;;;;;;;11.50;7.03;;;16.70;99.90;;;;;;4968425;28;20497;-82
2023/09/27 07:37:41;;;;;;;7.23;5.97;;;16.70;99.90;;;;;;4968722;28;20453;-82
2023/09/27 07:40:12;;;;;;;6.63;5.77;;;16.80;99.90;;;;;;4973035;28;21057;-82
2023/09/27 07:42:41;;;;;;;6.73;5.73;;;16.80;99.90;;;;;;4973539;28;20540;-82
2023/09/27 07:45:20;;;;;;;10.90;6.23;;;16.80;99.90;;;;;;4977293;28;20455;-82
2023/09/27 07:47:48;;;;;;;9.43;5.30;;;16.90;99.90;;;;;;4972821;28;20555;-82
2023/09/27 07:50:15;;;;;;;9.83;5.30;;;16.90;99.90;;;;;;4982982;28;20486;-80
2023/09/27 07:52:42;;;;;;;7.77;5.20;;;17.00;99.90;;;;;;4976647;28;20450;-82
2023/09/27 07:55:14;;;;;;;7.37;5.10;;;17.00;99.90;;;;;;4970792;28;20487;-81
2023/09/27 07:57:43;;;;;;;6.77;5.00;;;17.10;99.90;;;;;;4973788;28;20475;-80
2023/09/27 08:00:15;;;;;;;6.70;4.70;;;17.20;99.90;;;;;;4972269;28;20541;-80
2023/09/27 08:02:42;;;;;;;11.53;5.50;;;17.30;99.90;;;;;;4976475;28;20913;-80
2023/09/27 08:05:10;;;;;;;9.20;5.37;;;17.30;99.90;;;;;;4967279;28;20454;-79
2023/09/27 08:07:37;;;;;;;5.27;4.77;;;17.40;99.90;;;;;;4967281;28;20541;-80
2023/09/27 08:10:05;;;;;;;8.00;5.10;;;17.50;99.90;;;;;;4972653;28;20489;-80
2023/09/27 08:12:35;;;;;;;7.40;4.80;;;17.70;99.90;;;;;;4970524;28;20546;-79
2023/09/27 08:15:04;;;;;;;5.13;4.63;;;17.80;99.90;;;;;;4965828;28;21007;-80
2023/09/27 08:17:31;;;;;;;7.00;5.00;;;17.90;99.90;;;;;;4969683;28;20482;-79
2023/09/27 08:19:58;;;;;;;5.77;4.20;;;18.00;99.90;;;;;;4968265;28;20540;-80
2023/09/27 08:22:25;;;;;;;7.53;5.10;;;18.10;99.90;;;;;;4961619;28;20458;-80
2023/09/27 08:24:52;;;;;;;8.90;4.87;;;18.20;99.90;;;;;;4970780;28;20462;-80
2023/09/27 08:27:22;;;;;;;5.67;4.73;;;18.30;99.90;;;;;;4971812;28;20460;-79
2023/09/27 08:29:50;;;;;;;5.83;4.20;;;18.40;99.90;;;;;;4969057;28;20491;-79
2023/09/27 08:32:17;;;;;;;5.60;4.47;;;18.50;99.90;;;;;;4970366;28;20459;-79
2023/09/27 08:34:44;;;;;;;5.27;3.80;;;18.60;99.90;;;;;;4977422;28;21080;-80
2023/09/27 08:37:11;;;;;;;5.13;4.00;;;18.70;99.90;;;;;;4972153;28;20463;-80
2023/09/27 08:39:38;;;;;;;7.67;4.00;;;18.90;99.90;;;;;;4977718;28;20556;-80
2023/09/27 08:42:06;;;;;;;5.47;4.13;;;18.90;99.90;;;;;;4977636;28;20855;-80
2023/09/27 08:44:34;;;;;;;6.97;3.80;;;19.10;99.90;;;;;;4980264;28;20899;-80
2023/09/27 08:47:03;;;;;;;6.23;3.50;;;19.10;99.90;;;;;;4976991;28;20463;-79
2023/09/27 08:49:30;;;;;;;7.37;4.00;;;19.20;99.90;;;;;;4965781;28;20487;-80
2023/09/27 08:51:57;;;;;;;4.73;3.80;;;19.30;99.90;;;;;;4970380;28;20961;-80
2023/09/27 08:54:24;;;;;;;6.10;4.27;;;19.30;99.90;;;;;;4968248;28;20464;-80
2023/09/27 08:56:52;;;;;;;9.20;4.00;;;19.30;99.90;;;;;;4970136;28;20451;-81
2023/09/27 08:59:19;;;;;;;6.80;4.30;;;19.30;99.90;;;;;;4974417;28;21068;-81
2023/09/27 09:01:47;;;;;;;9.23;3.80;;;19.30;99.90;;;;;;4983250;28;20636;-82
2023/09/27 09:04:15;;;;;;;8.67;3.50;;;19.30;99.90;;;;;;4974372;28;20510;-80
2023/09/27 09:06:43;;;;;;;4.03;3.20;;;19.40;99.90;;;;;;4979502;28;20460;-79
2023/09/27 09:09:11;;;;;;;7.33;3.90;;;19.40;99.90;;;;;;4978985;28;21027;-81
2023/09/27 09:11:47;;;;;;;8.00;3.60;;;19.40;99.90;;;;;;4971409;28;20475;-79
2023/09/27 09:14:17;;;;;;;7.40;4.37;;;19.50;99.90;;;;;;4977089;28;20460;-79
2023/09/27 09:16:51;;;;;;;4.80;3.30;;;19.70;99.90;;;;;;4973874;28;20499;-80
2023/09/27 09:19:22;;;;;;;3.90;2.90;;;19.90;99.90;;;;;;4975090;28;20492;-80
2023/09/27 09:21:57;;;;;;;7.13;3.10;;;20.00;99.90;;;;;;4976995;28;20456;-80
2023/09/27 09:24:24;;;;;;;4.83;3.90;;;20.20;99.90;;;;;;4975094;28;21410;-80
2023/09/27 09:27:07;;;;;;;7.10;3.87;;;20.40;99.90;;;;;;4983444;28;20461;-80
2023/09/27 09:29:49;;;;;;;5.67;3.20;;;20.40;99.90;;;;;;4983536;28;20474;-80
2023/09/27 09:32:18;;;;;;;3.60;2.90;;;20.40;99.90;;;;;;4974404;28;20460;-80
2023/09/27 09:34:48;;;;;;;8.00;3.17;;;20.50;99.90;;;;;;4980914;28;20522;-82
2023/09/27 09:37:21;;;;;;;4.77;2.97;;;20.60;99.90;;;;;;4976754;28;20467;-80
2023/09/27 09:39:50;;;;;;;6.60;2.93;;;20.80;99.90;;;;;;4972104;28;20894;-79
2023/09/27 09:42:32;;;;;;;4.33;3.30;;;21.00;99.90;;;;;;4972850;28;20455;-80
2023/09/27 09:45:05;;;;;;;5.90;3.10;;;21.10;99.90;;;;;;4978365;28;20447;-79
2023/09/27 09:47:32;;;;;;;3.80;2.93;;;21.30;99.90;;;;;;4975745;28;20973;-80
2023/09/27 09:50:00;;;;;;;5.03;3.10;;;21.40;99.90;;;;;;4978937;28;20473;-80
2023/09/27 09:52:31;;;;;;;4.00;2.93;;;21.60;99.90;;;;;;4974659;28;20452;-80
2023/09/27 09:54:59;;;;;;;5.67;2.93;;;21.70;99.90;;;;;;4977734;28;20495;-78
2023/09/27 09:57:35;;;;;;;4.30;2.87;;;21.90;99.90;;;;;;4977822;28;20459;-78
2023/09/27 10:00:16;;;;;;;4.47;3.00;;;22.20;99.90;;;;;;4971265;28;20869;-78
2023/09/27 10:02:49;;;;;;;5.43;3.07;;;22.30;99.90;;;;;;4975568;28;20547;-78
2023/09/27 10:05:19;;;;;;;4.63;3.17;;;22.50;99.90;;;;;;4976355;28;20534;-78
2023/09/27 10:07:47;;;;;;;7.23;4.07;;;22.60;99.90;;;;;;4971908;28;20546;-79
2023/09/27 10:10:14;;;;;;;4.67;3.30;;;22.70;99.90;;;;;;4976277;28;20475;-78
2023/09/27 10:12:44;;;;;;;4.43;3.00;;;22.90;99.90;;;;;;4973584;28;20454;-79
2023/09/27 10:15:12;;;;;;;4.07;2.80;;;23.10;99.90;;;;;;4975779;28;20487;-80
2023/09/27 10:17:38;;;;;;;4.80;3.43;;;23.20;99.90;;;;;;4974698;28;21074;-79
2023/09/27 10:20:12;;;;;;;4.57;2.97;;;23.50;99.90;;;;;;4975863;28;20486;-78
2023/09/27 10:22:41;;;;;;;7.13;3.33;;;23.90;99.90;;;;;;4976666;28;20507;-79
2023/09/27 10:25:34;;;;;;;5.60;3.30;;;24.30;99.90;;;;;;4976390;28;20975;-78
2023/09/27 10:28:08;;;;;;;7.13;2.90;;;24.80;99.90;;;;;;4976153;28;20455;-78
2023/09/27 10:31:06;;;;;;;6.80;2.93;;;25.20;99.90;;;;;;4975733;28;21018;-78
2023/09/27 10:33:34;;;;;;;4.10;2.67;;;25.70;99.90;;;;;;4973317;28;20471;-79
2023/09/27 10:36:32;;;;;;;3.43;2.40;;;26.20;99.90;;;;;;4975863;28;20487;-78
2023/09/27 10:39:05;;;;;;;2.80;2.10;;;26.60;99.90;;;;;;4969654;28;20454;-79
2023/09/27 10:41:47;;;;;;;7.53;3.03;;;26.70;99.90;;;;;;4976894;28;20462;-79
2023/09/27 10:44:26;;;;;;;5.60;3.23;;;26.80;99.90;;;;;;4977007;28;20455;-79
2023/09/27 10:46:53;;;;;;;4.27;2.97;;;26.80;99.90;;;;;;4976796;28;20908;-79
2023/09/27 10:49:21;;;;;;;3.97;3.03;;;27.00;99.90;;;;;;4975960;28;20471;-78
2023/09/27 10:51:48;;;;;;;3.47;2.50;;;27.10;99.90;;;;;;4969837;28;20467;-79
2023/09/27 10:54:16;;;;;;;6.03;2.50;;;27.00;99.90;;;;;;4975649;28;20462;-80
2023/09/27 10:56:44;;;;;;;6.83;3.00;;;27.10;99.90;;;;;;4977244;28;21048;-79
2023/09/27 10:59:13;;;;;;;4.60;2.63;;;27.00;99.90;;;;;;4975296;28;20493;-79
2023/09/27 11:01:44;;;;;;;3.67;2.63;;;27.10;99.90;;;;;;4978078;28;20515;-79
2023/09/27 11:04:12;;;;;;;6.20;2.83;;;27.10;99.90;;;;;;4975725;28;20466;-79
2023/09/27 11:06:39;;;;;;;3.53;2.37;;;26.90;99.90;;;;;;4972530;28;20845;-79
2023/09/27 11:09:07;;;;;;;5.20;2.30;;;26.80;99.90;;;;;;4971251;28;20457;-80
2023/09/27 11:11:36;;;;;;;5.80;2.57;;;26.80;99.90;;;;;;4974479;28;20467;-79
2023/09/27 11:14:02;;;;;;;4.07;2.17;;;26.90;99.90;;;;;;4977812;28;20458;-79
2023/09/27 11:16:30;;;;;;;3.83;2.37;;;27.00;99.90;;;;;;4970293;28;20483;-80
2023/09/27 11:18:57;;;;;;;4.80;2.73;;;26.80;99.90;;;;;;4977692;28;20523;-79
2023/09/27 11:21:26;;;;;;;7.13;2.90;;;26.60;99.90;;;;;;4977248;28;20455;-79
2023/09/27 11:23:54;;;;;;;3.60;2.17;;;26.50;99.90;;;;;;4977635;28;20962;-81
2023/09/27 11:26:22;;;;;;;3.50;2.63;;;26.90;99.90;;;;;;4972415;28;20551;-80
2023/09/27 11:28:57;;;;;;;3.50;2.53;;;26.90;99.90;;;;;;4972161;28;20531;-80
2023/09/27 11:31:25;;;;;;;5.30;2.27;;;26.60;99.90;;;;;;4975537;28;20541;-80
2023/09/27 11:33:52;;;;;;;3.40;2.30;;;26.40;99.90;;;;;;4969819;28;20491;-80
2023/09/27 11:36:19;;;;;;;5.00;2.80;;;26.20;99.90;;;;;;4976169;28;20570;-81
2023/09/27 11:38:50;;;;;;;3.83;2.67;;;26.00;99.90;;;;;;4974300;28;20769;-79
2023/09/27 11:41:18;;;;;;;4.63;2.37;;;25.90;99.90;;;;;;4975161;28;20546;-80
2023/09/27 11:43:46;;;;;;;4.23;2.20;;;25.80;99.90;;;;;;4969806;28;20459;-80
2023/09/27 11:46:26;;;;;;;3.30;2.77;;;25.80;99.90;;;;;;4967290;28;20439;-81
2023/09/27 11:48:53;;;;;;;4.70;2.43;;;25.70;99.90;;;;;;4967845;28;20447;-80
2023/09/27 11:51:21;;;;;;;4.37;2.40;;;25.60;99.90;;;;;;4976766;28;20466;-80
2023/09/27 11:53:48;;;;;;;5.23;2.87;;;25.60;99.90;;;;;;4975292;28;20460;-80
2023/09/27 11:56:15;;;;;;;5.63;2.40;;;25.40;99.90;;;;;;4976274;28;20487;-80
2023/09/27 11:58:42;;;;;;;6.23;2.97;;;25.30;99.90;;;;;;4974570;28;20471;-80
2023/09/27 12:01:08;;;;;;;3.70;2.70;;;25.30;99.90;;;;;;4978193;28;20489;-80
2023/09/27 12:03:37;;;;;;;4.57;2.60;;;25.20;99.90;;;;;;4978314;28;20806;-81
2023/09/27 12:06:06;;;;;;;3.10;2.50;;;25.30;99.90;;;;;;4984213;28;20451;-81
2023/09/27 12:08:33;;;;;;;4.00;2.17;;;25.40;99.90;;;;;;4979338;28;20539;-80
2023/09/27 12:11:00;;;;;;;4.17;2.50;;;25.20;99.90;;;;;;4984912;28;20479;-81
2023/09/27 12:13:27;;;;;;;3.80;2.50;;;25.20;99.90;;;;;;4980450;28;20463;-80
2023/09/27 12:15:54;;;;;;;3.43;2.40;;;25.10;99.90;;;;;;4980974;28;20499;-80
2023/09/27 12:18:21;;;;;;;5.70;2.40;;;25.50;99.90;;;;;;4981693;28;20459;-80
2023/09/27 12:20:49;;;;;;;6.73;2.50;;;26.10;99.90;;;;;;4981826;28;20478;-80
2023/09/27 12:23:16;;;;;;;3.70;2.23;;;26.60;99.90;;;;;;4980374;28;20501;-80
2023/09/27 12:25:43;;;;;;;2.63;1.87;;;27.30;99.90;;;;;;4981514;28;20447;-81
2023/09/27 12:28:11;;;;;;;2.80;2.00;;;27.80;99.90;;;;;;4976958;28;20471;-80
2023/09/27 12:30:38;;;;;;;3.57;2.30;;;28.10;99.90;;;;;;4980085;28;20542;-80
2023/09/27 12:33:05;;;;;;;2.57;2.17;;;28.20;99.90;;;;;;4982012;28;20451;-80
2023/09/27 12:35:32;;;;;;;3.33;1.60;;;28.10;99.90;;;;;;4983802;28;20462;-81
2023/09/27 12:38:03;;;;;;;3.03;2.10;;;27.80;99.90;;;;;;4983327;28;20463;-80
2023/09/27 12:40:32;;;;;;;3.77;2.00;;;27.70;99.90;;;;;;4982795;28;20503;-80
2023/09/27 12:42:59;;;;;;;2.63;2.13;;;27.70;99.90;;;;;;4982637;28;20459;-80
2023/09/27 12:45:25;;;;;;;3.40;2.33;;;27.90;99.90;;;;;;4979392;28;20461;-81
2023/09/27 12:47:52;;;;;;;3.33;2.23;;;28.10;99.90;;;;;;4976695;28;20463;-80
2023/09/27 12:50:26;;;;;;;4.33;2.07;;;28.10;99.90;;;;;;4978972;28;20475;-80
2023/09/27 12:52:53;;;;;;;3.20;1.83;;;28.00;99.90;;;;;;4980402;28;20456;-80